sensor_id;sensor_type;location;lat;lon;timestamp;P1;durP1;ratioP1;P2;durP2;ratioP2
44862;SDS011;30597;49.628;10.850;2023-04-25T00:02:20;5.03;;;4.63;;
44862;SDS011;30597;49.628;10.850;2023-04-25T00:04:46;4.83;;;4.43;;
44862;SDS011;30597;49.628;10.850;2023-04-25T00:07:13;6.60;;;4.43;;
44862;SDS011;30597;49.628;10.850;2023-04-25T00:09:39;4.10;;;3.70;;
44862;SDS011;30597;49.628;10.850;2023-04-25T00:12:06;4.60;;;4.20;;
44862;SDS011;30597;49.628;10.850;2023-04-25T00:14:32;4.10;;;3.80;;
44862;SDS011;30597;49.628;10.850;2023-04-25T00:17:01;4.43;;;3.80;;
44862;SDS011;30597;49.628;10.850;2023-04-25T00:19:27;4.67;;;4.20;;
44862;SDS011;30597;49.628;10.850;2023-04-25T00:21:56;4.70;;;4.20;;
44862;SDS011;30597;49.628;10.850;2023-04-25T00:24:22;5.60;;;3.83;;
44862;SDS011;30597;49.628;10.850;2023-04-25T00:26:48;4.77;;;4.37;;
44862;SDS011;30597;49.628;10.850;2023-04-25T00:29:13;4.73;;;4.33;;
44862;SDS011;30597;49.628;10.850;2023-04-25T00:31:39;4.47;;;4.17;;
44862;SDS011;30597;49.628;10.850;2023-04-25T00:34:05;4.63;;;4.17;;
44862;SDS011;30597;49.628;10.850;2023-04-25T00:36:33;4.37;;;3.97;;
44862;SDS011;30597;49.628;10.850;2023-04-25T00:38:58;4.20;;;3.80;;
44862;SDS011;30597;49.628;10.850;2023-04-25T00:41:25;3.93;;;3.63;;
44862;SDS011;30597;49.628;10.850;2023-04-25T00:43:51;4.03;;;3.63;;
44862;SDS011;30597;49.628;10.850;2023-04-25T00:46:18;4.60;;;4.20;;
44862;SDS011;30597;49.628;10.850;2023-04-25T00:48:44;3.83;;;3.37;;
44862;SDS011;30597;49.628;10.850;2023-04-25T00:51:09;3.60;;;3.30;;
44862;SDS011;30597;49.628;10.850;2023-04-25T00:53:38;3.93;;;3.63;;
44862;SDS011;30597;49.628;10.850;2023-04-25T00:56:04;3.43;;;3.13;;
44862;SDS011;30597;49.628;10.850;2023-04-25T00:58:30;4.23;;;3.83;;
44862;SDS011;30597;49.628;10.850;2023-04-25T01:00:56;3.27;;;2.97;;
44862;SDS011;30597;49.628;10.850;2023-04-25T01:03:22;3.77;;;3.47;;
44862;SDS011;30597;49.628;10.850;2023-04-25T01:05:48;4.17;;;3.57;;
44862;SDS011;30597;49.628;10.850;2023-04-25T01:08:14;3.77;;;3.43;;
44862;SDS011;30597;49.628;10.850;2023-04-25T01:10:40;4.00;;;3.70;;
44862;SDS011;30597;49.628;10.850;2023-04-25T01:13:06;4.90;;;3.60;;
44862;SDS011;30597;49.628;10.850;2023-04-25T01:15:32;4.43;;;3.60;;
44862;SDS011;30597;49.628;10.850;2023-04-25T01:17:57;3.60;;;3.30;;
44862;SDS011;30597;49.628;10.850;2023-04-25T01:20:25;3.60;;;3.30;;
44862;SDS011;30597;49.628;10.850;2023-04-25T01:22:53;3.90;;;3.50;;
44862;SDS011;30597;49.628;10.850;2023-04-25T01:25:20;3.33;;;3.03;;
44862;SDS011;30597;49.628;10.850;2023-04-25T01:27:46;4.00;;;3.63;;
44862;SDS011;30597;49.628;10.850;2023-04-25T01:30:15;3.70;;;3.27;;
44862;SDS011;30597;49.628;10.850;2023-04-25T01:32:41;4.10;;;3.70;;
44862;SDS011;30597;49.628;10.850;2023-04-25T01:35:09;3.00;;;2.80;;
44862;SDS011;30597;49.628;10.850;2023-04-25T01:37:37;3.60;;;3.30;;
44862;SDS011;30597;49.628;10.850;2023-04-25T01:40:07;3.57;;;3.27;;
44862;SDS011;30597;49.628;10.850;2023-04-25T01:42:37;3.50;;;3.20;;
44862;SDS011;30597;49.628;10.850;2023-04-25T01:45:04;3.40;;;3.10;;
44862;SDS011;30597;49.628;10.850;2023-04-25T01:47:31;3.50;;;3.20;;
44862;SDS011;30597;49.628;10.850;2023-04-25T01:49:57;3.50;;;3.20;;
44862;SDS011;30597;49.628;10.850;2023-04-25T01:52:22;2.83;;;2.63;;
44862;SDS011;30597;49.628;10.850;2023-04-25T01:54:48;3.20;;;3.00;;
44862;SDS011;30597;49.628;10.850;2023-04-25T01:57:16;3.20;;;2.90;;
44862;SDS011;30597;49.628;10.850;2023-04-25T01:59:41;3.20;;;2.90;;
44862;SDS011;30597;49.628;10.850;2023-04-25T02:02:08;2.50;;;2.30;;
44862;SDS011;30597;49.628;10.850;2023-04-25T02:04:33;2.73;;;2.53;;
44862;SDS011;30597;49.628;10.850;2023-04-25T02:06:59;3.20;;;2.90;;
44862;SDS011;30597;49.628;10.850;2023-04-25T02:09:24;4.03;;;3.00;;
44862;SDS011;30597;49.628;10.850;2023-04-25T02:11:50;3.37;;;3.03;;
44862;SDS011;30597;49.628;10.850;2023-04-25T02:14:15;3.43;;;3.13;;
44862;SDS011;30597;49.628;10.850;2023-04-25T02:16:41;3.03;;;2.80;;
44862;SDS011;30597;49.628;10.850;2023-04-25T02:19:08;3.17;;;2.60;;
44862;SDS011;30597;49.628;10.850;2023-04-25T02:21:35;3.07;;;2.77;;
44862;SDS011;30597;49.628;10.850;2023-04-25T02:24:01;4.27;;;3.60;;
44862;SDS011;30597;49.628;10.850;2023-04-25T02:26:27;2.80;;;2.60;;
44862;SDS011;30597;49.628;10.850;2023-04-25T02:28:53;3.20;;;2.90;;
44862;SDS011;30597;49.628;10.850;2023-04-25T02:31:18;2.97;;;2.67;;
44862;SDS011;30597;49.628;10.850;2023-04-25T02:33:44;2.57;;;2.37;;
44862;SDS011;30597;49.628;10.850;2023-04-25T02:36:09;3.10;;;2.80;;
44862;SDS011;30597;49.628;10.850;2023-04-25T02:38:35;3.30;;;2.93;;
44862;SDS011;30597;49.628;10.850;2023-04-25T02:41:01;2.80;;;2.60;;
44862;SDS011;30597;49.628;10.850;2023-04-25T02:43:26;3.37;;;3.07;;
44862;SDS011;30597;49.628;10.850;2023-04-25T02:45:52;2.93;;;2.73;;
44862;SDS011;30597;49.628;10.850;2023-04-25T02:48:17;2.90;;;2.70;;
44862;SDS011;30597;49.628;10.850;2023-04-25T02:50:43;3.17;;;2.83;;
44862;SDS011;30597;49.628;10.850;2023-04-25T02:53:10;7.10;;;3.33;;
44862;SDS011;30597;49.628;10.850;2023-04-25T02:55:36;3.10;;;2.90;;
44862;SDS011;30597;49.628;10.850;2023-04-25T02:58:02;3.10;;;2.80;;
44862;SDS011;30597;49.628;10.850;2023-04-25T03:00:27;3.40;;;2.90;;
44862;SDS011;30597;49.628;10.850;2023-04-25T03:02:53;2.53;;;2.30;;
44862;SDS011;30597;49.628;10.850;2023-04-25T03:05:18;2.67;;;2.47;;
44862;SDS011;30597;49.628;10.850;2023-04-25T03:07:44;3.70;;;3.03;;
44862;SDS011;30597;49.628;10.850;2023-04-25T03:10:10;3.43;;;3.00;;
44862;SDS011;30597;49.628;10.850;2023-04-25T03:12:36;4.53;;;2.43;;
44862;SDS011;30597;49.628;10.850;2023-04-25T03:15:02;3.33;;;3.03;;
44862;SDS011;30597;49.628;10.850;2023-04-25T03:17:28;3.47;;;2.80;;
44862;SDS011;30597;49.628;10.850;2023-04-25T03:19:54;3.30;;;3.00;;
44862;SDS011;30597;49.628;10.850;2023-04-25T03:22:20;2.83;;;2.63;;
44862;SDS011;30597;49.628;10.850;2023-04-25T03:24:46;3.23;;;2.93;;
44862;SDS011;30597;49.628;10.850;2023-04-25T03:27:12;2.90;;;2.60;;
44862;SDS011;30597;49.628;10.850;2023-04-25T03:29:37;2.77;;;2.57;;
44862;SDS011;30597;49.628;10.850;2023-04-25T03:32:03;3.10;;;2.60;;
44862;SDS011;30597;49.628;10.850;2023-04-25T03:34:28;4.50;;;2.70;;
44862;SDS011;30597;49.628;10.850;2023-04-25T03:36:54;3.10;;;2.90;;
44862;SDS011;30597;49.628;10.850;2023-04-25T03:39:20;3.00;;;2.70;;
44862;SDS011;30597;49.628;10.850;2023-04-25T03:41:46;2.80;;;2.50;;
44862;SDS011;30597;49.628;10.850;2023-04-25T03:44:11;3.20;;;2.90;;
44862;SDS011;30597;49.628;10.850;2023-04-25T03:46:37;3.20;;;2.90;;
44862;SDS011;30597;49.628;10.850;2023-04-25T03:49:02;2.87;;;2.50;;
44862;SDS011;30597;49.628;10.850;2023-04-25T03:51:28;2.87;;;2.67;;
44862;SDS011;30597;49.628;10.850;2023-04-25T03:53:53;3.77;;;2.57;;
44862;SDS011;30597;49.628;10.850;2023-04-25T03:56:19;2.33;;;2.13;;
44862;SDS011;30597;49.628;10.850;2023-04-25T03:58:45;2.30;;;2.10;;
44862;SDS011;30597;49.628;10.850;2023-04-25T04:01:11;3.00;;;2.57;;
44862;SDS011;30597;49.628;10.850;2023-04-25T04:03:37;2.87;;;2.57;;
44862;SDS011;30597;49.628;10.850;2023-04-25T04:06:05;1.93;;;1.83;;
44862;SDS011;30597;49.628;10.850;2023-04-25T04:08:32;3.53;;;2.40;;
44862;SDS011;30597;49.628;10.850;2023-04-25T04:10:58;2.93;;;2.60;;
44862;SDS011;30597;49.628;10.850;2023-04-25T04:13:27;2.60;;;2.37;;
44862;SDS011;30597;49.628;10.850;2023-04-25T04:15:53;3.20;;;2.93;;
44862;SDS011;30597;49.628;10.850;2023-04-25T04:18:19;3.07;;;2.77;;
44862;SDS011;30597;49.628;10.850;2023-04-25T04:20:44;2.87;;;2.57;;
44862;SDS011;30597;49.628;10.850;2023-04-25T04:23:10;2.83;;;2.33;;
44862;SDS011;30597;49.628;10.850;2023-04-25T04:25:35;2.47;;;2.27;;
44862;SDS011;30597;49.628;10.850;2023-04-25T04:28:02;2.40;;;2.17;;
44862;SDS011;30597;49.628;10.850;2023-04-25T04:30:27;2.73;;;2.53;;
44862;SDS011;30597;49.628;10.850;2023-04-25T04:32:56;2.67;;;2.47;;
44862;SDS011;30597;49.628;10.850;2023-04-25T04:35:22;2.80;;;2.40;;
44862;SDS011;30597;49.628;10.850;2023-04-25T04:37:48;2.60;;;2.40;;
44862;SDS011;30597;49.628;10.850;2023-04-25T04:40:14;2.60;;;2.40;;
44862;SDS011;30597;49.628;10.850;2023-04-25T04:42:41;2.27;;;2.07;;
44862;SDS011;30597;49.628;10.850;2023-04-25T04:45:07;2.77;;;2.57;;
44862;SDS011;30597;49.628;10.850;2023-04-25T04:47:33;2.67;;;2.47;;
44862;SDS011;30597;49.628;10.850;2023-04-25T04:50:02;2.27;;;2.07;;
44862;SDS011;30597;49.628;10.850;2023-04-25T04:52:28;2.70;;;2.50;;
44862;SDS011;30597;49.628;10.850;2023-04-25T04:54:54;2.97;;;2.60;;
44862;SDS011;30597;49.628;10.850;2023-04-25T04:57:20;2.60;;;2.30;;
44862;SDS011;30597;49.628;10.850;2023-04-25T04:59:46;2.70;;;2.50;;
44862;SDS011;30597;49.628;10.850;2023-04-25T05:02:11;2.10;;;1.90;;
44862;SDS011;30597;49.628;10.850;2023-04-25T05:04:37;2.77;;;2.00;;
44862;SDS011;30597;49.628;10.850;2023-04-25T05:07:02;2.40;;;2.20;;
44862;SDS011;30597;49.628;10.850;2023-04-25T05:09:28;2.37;;;2.10;;
44862;SDS011;30597;49.628;10.850;2023-04-25T05:11:53;2.63;;;2.40;;
44862;SDS011;30597;49.628;10.850;2023-04-25T05:14:19;2.57;;;2.27;;
44862;SDS011;30597;49.628;10.850;2023-04-25T05:16:46;2.60;;;2.40;;
44862;SDS011;30597;49.628;10.850;2023-04-25T05:19:12;2.40;;;2.20;;
44862;SDS011;30597;49.628;10.850;2023-04-25T05:21:38;2.93;;;2.70;;
44862;SDS011;30597;49.628;10.850;2023-04-25T05:24:03;2.43;;;2.20;;
44862;SDS011;30597;49.628;10.850;2023-04-25T05:26:29;3.40;;;2.90;;
44862;SDS011;30597;49.628;10.850;2023-04-25T05:28:56;2.27;;;2.07;;
44862;SDS011;30597;49.628;10.850;2023-04-25T05:31:22;2.93;;;2.63;;
44862;SDS011;30597;49.628;10.850;2023-04-25T05:33:48;2.70;;;2.50;;
44862;SDS011;30597;49.628;10.850;2023-04-25T05:36:13;2.60;;;2.27;;
44862;SDS011;30597;49.628;10.850;2023-04-25T05:38:39;2.73;;;2.53;;
44862;SDS011;30597;49.628;10.850;2023-04-25T05:41:04;2.87;;;2.50;;
44862;SDS011;30597;49.628;10.850;2023-04-25T05:43:30;3.10;;;2.90;;
44862;SDS011;30597;49.628;10.850;2023-04-25T05:45:55;3.10;;;2.80;;
44862;SDS011;30597;49.628;10.850;2023-04-25T05:48:21;2.57;;;2.30;;
44862;SDS011;30597;49.628;10.850;2023-04-25T05:50:47;2.27;;;2.07;;
44862;SDS011;30597;49.628;10.850;2023-04-25T05:53:12;3.43;;;2.80;;
44862;SDS011;30597;49.628;10.850;2023-04-25T05:55:38;2.70;;;2.50;;
44862;SDS011;30597;49.628;10.850;2023-04-25T05:58:05;4.37;;;2.97;;
44862;SDS011;30597;49.628;10.850;2023-04-25T06:00:31;3.10;;;2.80;;
44862;SDS011;30597;49.628;10.850;2023-04-25T06:02:57;3.20;;;2.90;;
44862;SDS011;30597;49.628;10.850;2023-04-25T06:05:23;3.00;;;2.70;;
44862;SDS011;30597;49.628;10.850;2023-04-25T06:07:48;3.07;;;2.83;;
44862;SDS011;30597;49.628;10.850;2023-04-25T06:10:14;2.97;;;2.77;;
44862;SDS011;30597;49.628;10.850;2023-04-25T06:12:40;4.57;;;3.63;;
44862;SDS011;30597;49.628;10.850;2023-04-25T06:15:05;3.20;;;2.90;;
44862;SDS011;30597;49.628;10.850;2023-04-25T06:17:32;3.33;;;3.03;;
44862;SDS011;30597;49.628;10.850;2023-04-25T06:19:58;4.17;;;3.20;;
44862;SDS011;30597;49.628;10.850;2023-04-25T06:22:23;3.93;;;3.00;;
44862;SDS011;30597;49.628;10.850;2023-04-25T06:24:49;3.10;;;2.80;;
44862;SDS011;30597;49.628;10.850;2023-04-25T06:27:14;3.43;;;3.13;;
44862;SDS011;30597;49.628;10.850;2023-04-25T06:29:40;3.10;;;2.90;;
44862;SDS011;30597;49.628;10.850;2023-04-25T06:32:05;2.70;;;2.50;;
44862;SDS011;30597;49.628;10.850;2023-04-25T06:34:31;2.67;;;2.47;;
44862;SDS011;30597;49.628;10.850;2023-04-25T06:36:56;3.13;;;2.60;;
44862;SDS011;30597;49.628;10.850;2023-04-25T06:39:22;3.10;;;2.70;;
44862;SDS011;30597;49.628;10.850;2023-04-25T06:41:49;4.90;;;3.93;;
44862;SDS011;30597;49.628;10.850;2023-04-25T06:44:15;5.70;;;3.20;;
44862;SDS011;30597;49.628;10.850;2023-04-25T06:46:40;3.10;;;2.80;;
44862;SDS011;30597;49.628;10.850;2023-04-25T06:49:06;4.97;;;4.17;;
44862;SDS011;30597;49.628;10.850;2023-04-25T06:51:32;3.70;;;3.10;;
44862;SDS011;30597;49.628;10.850;2023-04-25T06:53:57;3.10;;;2.53;;
44862;SDS011;30597;49.628;10.850;2023-04-25T06:56:23;3.70;;;3.17;;
44862;SDS011;30597;49.628;10.850;2023-04-25T06:58:48;3.00;;;2.50;;
44862;SDS011;30597;49.628;10.850;2023-04-25T07:01:14;4.17;;;2.80;;
44862;SDS011;30597;49.628;10.850;2023-04-25T07:03:40;3.80;;;3.27;;
44862;SDS011;30597;49.628;10.850;2023-04-25T07:06:06;3.20;;;2.90;;
44862;SDS011;30597;49.628;10.850;2023-04-25T07:08:31;3.40;;;2.70;;
44862;SDS011;30597;49.628;10.850;2023-04-25T07:10:57;3.27;;;2.67;;
44862;SDS011;30597;49.628;10.850;2023-04-25T07:13:23;3.90;;;2.70;;
44862;SDS011;30597;49.628;10.850;2023-04-25T07:15:48;3.30;;;2.70;;
44862;SDS011;30597;49.628;10.850;2023-04-25T07:18:14;2.80;;;2.60;;
44862;SDS011;30597;49.628;10.850;2023-04-25T07:20:40;4.30;;;2.90;;
44862;SDS011;30597;49.628;10.850;2023-04-25T07:23:05;2.83;;;2.63;;
44862;SDS011;30597;49.628;10.850;2023-04-25T07:25:31;3.00;;;2.70;;
44862;SDS011;30597;49.628;10.850;2023-04-25T07:27:57;3.00;;;2.60;;
44862;SDS011;30597;49.628;10.850;2023-04-25T07:30:22;2.93;;;2.73;;
44862;SDS011;30597;49.628;10.850;2023-04-25T07:32:48;2.50;;;2.30;;
44862;SDS011;30597;49.628;10.850;2023-04-25T07:35:15;2.77;;;2.50;;
44862;SDS011;30597;49.628;10.850;2023-04-25T07:37:40;3.37;;;3.07;;
44862;SDS011;30597;49.628;10.850;2023-04-25T07:40:06;3.50;;;2.50;;
44862;SDS011;30597;49.628;10.850;2023-04-25T07:42:33;3.17;;;2.13;;
44862;SDS011;30597;49.628;10.850;2023-04-25T07:45:00;2.70;;;2.50;;
44862;SDS011;30597;49.628;10.850;2023-04-25T07:47:26;2.90;;;2.67;;
44862;SDS011;30597;49.628;10.850;2023-04-25T07:49:51;3.80;;;2.90;;
44862;SDS011;30597;49.628;10.850;2023-04-25T07:52:17;2.80;;;2.50;;
44862;SDS011;30597;49.628;10.850;2023-04-25T07:54:42;2.87;;;2.67;;
44862;SDS011;30597;49.628;10.850;2023-04-25T07:57:08;2.50;;;2.30;;
44862;SDS011;30597;49.628;10.850;2023-04-25T07:59:34;3.30;;;2.80;;
44862;SDS011;30597;49.628;10.850;2023-04-25T08:02:00;4.37;;;2.90;;
44862;SDS011;30597;49.628;10.850;2023-04-25T08:04:26;3.80;;;3.10;;
44862;SDS011;30597;49.628;10.850;2023-04-25T08:06:52;3.10;;;2.60;;
44862;SDS011;30597;49.628;10.850;2023-04-25T08:09:19;3.90;;;3.03;;
44862;SDS011;30597;49.628;10.850;2023-04-25T08:11:45;4.83;;;3.10;;
44862;SDS011;30597;49.628;10.850;2023-04-25T08:14:11;3.33;;;2.60;;
44862;SDS011;30597;49.628;10.850;2023-04-25T08:16:37;3.03;;;2.40;;
44862;SDS011;30597;49.628;10.850;2023-04-25T08:19:02;3.57;;;2.60;;
44862;SDS011;30597;49.628;10.850;2023-04-25T08:21:28;3.63;;;2.77;;
44862;SDS011;30597;49.628;10.850;2023-04-25T08:23:53;3.27;;;2.97;;
44862;SDS011;30597;49.628;10.850;2023-04-25T08:26:19;3.17;;;2.67;;
44862;SDS011;30597;49.628;10.850;2023-04-25T08:28:45;2.87;;;2.63;;
44862;SDS011;30597;49.628;10.850;2023-04-25T08:31:11;2.97;;;2.67;;
44862;SDS011;30597;49.628;10.850;2023-04-25T08:33:37;2.70;;;2.47;;
44862;SDS011;30597;49.628;10.850;2023-04-25T08:36:02;5.40;;;2.40;;
44862;SDS011;30597;49.628;10.850;2023-04-25T08:38:28;3.43;;;2.70;;
44862;SDS011;30597;49.628;10.850;2023-04-25T08:40:54;2.63;;;2.43;;
44862;SDS011;30597;49.628;10.850;2023-04-25T08:43:20;3.23;;;2.40;;
44862;SDS011;30597;49.628;10.850;2023-04-25T08:45:46;3.87;;;3.20;;
44862;SDS011;30597;49.628;10.850;2023-04-25T08:48:12;3.53;;;2.50;;
44862;SDS011;30597;49.628;10.850;2023-04-25T08:50:40;2.77;;;2.40;;
44862;SDS011;30597;49.628;10.850;2023-04-25T08:53:26;2.30;;;2.10;;
44862;SDS011;30597;49.628;10.850;2023-04-25T08:55:56;3.20;;;2.90;;
44862;SDS011;30597;49.628;10.850;2023-04-25T08:58:23;4.17;;;2.53;;
44862;SDS011;30597;49.628;10.850;2023-04-25T09:00:49;4.53;;;2.40;;
44862;SDS011;30597;49.628;10.850;2023-04-25T09:03:16;5.23;;;3.00;;
44862;SDS011;30597;49.628;10.850;2023-04-25T09:05:42;3.40;;;3.00;;
44862;SDS011;30597;49.628;10.850;2023-04-25T09:08:08;3.07;;;2.33;;
44862;SDS011;30597;49.628;10.850;2023-04-25T09:10:34;4.90;;;2.27;;
44862;SDS011;30597;49.628;10.850;2023-04-25T09:13:04;3.00;;;2.53;;
44862;SDS011;30597;49.628;10.850;2023-04-25T09:15:31;2.73;;;2.20;;
44862;SDS011;30597;49.628;10.850;2023-04-25T09:17:57;2.63;;;2.40;;
44862;SDS011;30597;49.628;10.850;2023-04-25T09:20:24;4.40;;;3.10;;
44862;SDS011;30597;49.628;10.850;2023-04-25T09:22:50;3.50;;;2.90;;
44862;SDS011;30597;49.628;10.850;2023-04-25T09:25:27;3.17;;;2.50;;
44862;SDS011;30597;49.628;10.850;2023-04-25T09:28:04;3.13;;;2.80;;
44862;SDS011;30597;49.628;10.850;2023-04-25T09:30:31;3.13;;;2.50;;
44862;SDS011;30597;49.628;10.850;2023-04-25T09:33:05;3.13;;;2.83;;
44862;SDS011;30597;49.628;10.850;2023-04-25T09:35:39;3.00;;;2.70;;
44862;SDS011;30597;49.628;10.850;2023-04-25T09:38:13;2.87;;;2.57;;
44862;SDS011;30597;49.628;10.850;2023-04-25T09:40:43;4.40;;;2.63;;
44862;SDS011;30597;49.628;10.850;2023-04-25T09:43:18;2.80;;;2.50;;
44862;SDS011;30597;49.628;10.850;2023-04-25T09:45:48;3.00;;;2.57;;
44862;SDS011;30597;49.628;10.850;2023-04-25T09:48:20;3.33;;;2.60;;
44862;SDS011;30597;49.628;10.850;2023-04-25T09:51:05;2.80;;;2.60;;
44862;SDS011;30597;49.628;10.850;2023-04-25T09:53:35;2.83;;;2.40;;
44862;SDS011;30597;49.628;10.850;2023-04-25T09:56:06;3.33;;;3.03;;
44862;SDS011;30597;49.628;10.850;2023-04-25T09:58:34;2.87;;;2.57;;
44862;SDS011;30597;49.628;10.850;2023-04-25T10:01:01;3.40;;;2.33;;
44862;SDS011;30597;49.628;10.850;2023-04-25T10:03:29;2.90;;;2.60;;
44862;SDS011;30597;49.628;10.850;2023-04-25T10:05:59;2.93;;;2.40;;
44862;SDS011;30597;49.628;10.850;2023-04-25T10:08:32;2.10;;;2.00;;
44862;SDS011;30597;49.628;10.850;2023-04-25T10:11:02;3.33;;;2.70;;
44862;SDS011;30597;49.628;10.850;2023-04-25T10:13:29;2.90;;;2.60;;
44862;SDS011;30597;49.628;10.850;2023-04-25T10:15:57;3.10;;;2.53;;
44862;SDS011;30597;49.628;10.850;2023-04-25T10:18:23;4.57;;;2.87;;
44862;SDS011;30597;49.628;10.850;2023-04-25T10:20:50;2.50;;;2.30;;
44862;SDS011;30597;49.628;10.850;2023-04-25T10:23:16;2.40;;;2.20;;
44862;SDS011;30597;49.628;10.850;2023-04-25T10:25:42;2.63;;;1.93;;
44862;SDS011;30597;49.628;10.850;2023-04-25T10:28:09;2.90;;;2.33;;
44862;SDS011;30597;49.628;10.850;2023-04-25T10:30:34;2.70;;;2.30;;
44862;SDS011;30597;49.628;10.850;2023-04-25T10:33:00;3.03;;;2.67;;
44862;SDS011;30597;49.628;10.850;2023-04-25T10:35:29;3.23;;;2.70;;
44862;SDS011;30597;49.628;10.850;2023-04-25T10:37:59;2.27;;;2.07;;
44862;SDS011;30597;49.628;10.850;2023-04-25T10:40:28;4.10;;;2.57;;
44862;SDS011;30597;49.628;10.850;2023-04-25T10:42:55;2.87;;;2.57;;
44862;SDS011;30597;49.628;10.850;2023-04-25T10:45:21;2.50;;;2.30;;
44862;SDS011;30597;49.628;10.850;2023-04-25T10:47:47;4.63;;;2.47;;
44862;SDS011;30597;49.628;10.850;2023-04-25T10:50:16;2.27;;;1.97;;
44862;SDS011;30597;49.628;10.850;2023-04-25T10:52:42;2.50;;;2.23;;
44862;SDS011;30597;49.628;10.850;2023-04-25T10:55:08;4.37;;;2.40;;
44862;SDS011;30597;49.628;10.850;2023-04-25T10:57:37;2.73;;;2.30;;
44862;SDS011;30597;49.628;10.850;2023-04-25T11:02:30;3.17;;;2.23;;
44862;SDS011;30597;49.628;10.850;2023-04-25T11:04:55;4.27;;;2.40;;
44862;SDS011;30597;49.628;10.850;2023-04-25T11:10:17;2.63;;;2.43;;
44862;SDS011;30597;49.628;10.850;2023-04-25T11:12:44;2.73;;;2.00;;
44862;SDS011;30597;49.628;10.850;2023-04-25T11:15:11;2.47;;;2.00;;
44862;SDS011;30597;49.628;10.850;2023-04-25T11:17:37;2.70;;;2.23;;
44862;SDS011;30597;49.628;10.850;2023-04-25T11:20:05;3.20;;;2.20;;
44862;SDS011;30597;49.628;10.850;2023-04-25T11:22:33;2.00;;;1.90;;
44862;SDS011;30597;49.628;10.850;2023-04-25T11:25:04;5.33;;;2.27;;
44862;SDS011;30597;49.628;10.850;2023-04-25T11:27:30;2.50;;;2.10;;
44862;SDS011;30597;49.628;10.850;2023-04-25T11:29:56;2.17;;;1.60;;
44862;SDS011;30597;49.628;10.850;2023-04-25T11:32:21;2.60;;;1.80;;
44862;SDS011;30597;49.628;10.850;2023-04-25T11:34:48;2.77;;;2.07;;
44862;SDS011;30597;49.628;10.850;2023-04-25T11:37:14;3.27;;;2.20;;
44862;SDS011;30597;49.628;10.850;2023-04-25T11:39:44;2.00;;;1.90;;
44862;SDS011;30597;49.628;10.850;2023-04-25T11:42:11;3.07;;;2.20;;
44862;SDS011;30597;49.628;10.850;2023-04-25T11:44:37;3.40;;;2.07;;
44862;SDS011;30597;49.628;10.850;2023-04-25T11:47:04;3.17;;;2.07;;
44862;SDS011;30597;49.628;10.850;2023-04-25T11:49:30;2.10;;;2.00;;
44862;SDS011;30597;49.628;10.850;2023-04-25T11:51:57;2.23;;;1.90;;
44862;SDS011;30597;49.628;10.850;2023-04-25T11:54:22;4.53;;;2.20;;
44862;SDS011;30597;49.628;10.850;2023-04-25T11:56:48;3.13;;;2.20;;
44862;SDS011;30597;49.628;10.850;2023-04-25T11:59:13;2.77;;;2.17;;
44862;SDS011;30597;49.628;10.850;2023-04-25T12:01:40;2.07;;;1.80;;
44862;SDS011;30597;49.628;10.850;2023-04-25T12:04:13;2.47;;;2.27;;
44862;SDS011;30597;49.628;10.850;2023-04-25T12:06:41;2.97;;;1.57;;
44862;SDS011;30597;49.628;10.850;2023-04-25T12:09:09;2.57;;;1.97;;
44862;SDS011;30597;49.628;10.850;2023-04-25T12:11:42;2.40;;;1.77;;
44862;SDS011;30597;49.628;10.850;2023-04-25T12:14:09;2.60;;;2.40;;
44862;SDS011;30597;49.628;10.850;2023-04-25T12:16:45;1.80;;;1.70;;
44862;SDS011;30597;49.628;10.850;2023-04-25T12:19:15;1.63;;;1.53;;
44862;SDS011;30597;49.628;10.850;2023-04-25T12:21:42;2.30;;;2.10;;
44862;SDS011;30597;49.628;10.850;2023-04-25T12:24:15;2.00;;;1.60;;
44862;SDS011;30597;49.628;10.850;2023-04-25T12:29:24;2.20;;;2.00;;
44862;SDS011;30597;49.628;10.850;2023-04-25T12:31:51;1.97;;;1.73;;
44862;SDS011;30597;49.628;10.850;2023-04-25T12:34:18;2.20;;;2.00;;
44862;SDS011;30597;49.628;10.850;2023-04-25T12:36:44;2.27;;;2.07;;
44862;SDS011;30597;49.628;10.850;2023-04-25T12:39:16;1.87;;;1.70;;
44862;SDS011;30597;49.628;10.850;2023-04-25T12:41:43;2.33;;;2.13;;
44862;SDS011;30597;49.628;10.850;2023-04-25T12:44:09;2.00;;;1.77;;
44862;SDS011;30597;49.628;10.850;2023-04-25T12:46:36;1.80;;;1.70;;
44862;SDS011;30597;49.628;10.850;2023-04-25T12:49:02;1.93;;;1.77;;
44862;SDS011;30597;49.628;10.850;2023-04-25T12:51:28;2.10;;;1.50;;
44862;SDS011;30597;49.628;10.850;2023-04-25T12:53:54;1.57;;;1.40;;
44862;SDS011;30597;49.628;10.850;2023-04-25T12:56:20;1.70;;;1.50;;
44862;SDS011;30597;49.628;10.850;2023-04-25T12:58:45;1.73;;;1.63;;
44862;SDS011;30597;49.628;10.850;2023-04-25T13:01:13;2.30;;;1.80;;
44862;SDS011;30597;49.628;10.850;2023-04-25T13:03:39;1.80;;;1.70;;
44862;SDS011;30597;49.628;10.850;2023-04-25T13:06:05;1.43;;;1.33;;
44862;SDS011;30597;49.628;10.850;2023-04-25T13:08:31;1.50;;;1.20;;
44862;SDS011;30597;49.628;10.850;2023-04-25T13:10:57;1.93;;;1.73;;
44862;SDS011;30597;49.628;10.850;2023-04-25T13:13:22;1.83;;;1.40;;
44862;SDS011;30597;49.628;10.850;2023-04-25T13:15:48;1.90;;;1.80;;
44862;SDS011;30597;49.628;10.850;2023-04-25T13:18:14;3.00;;;1.80;;
44862;SDS011;30597;49.628;10.850;2023-04-25T13:20:40;2.27;;;2.07;;
44862;SDS011;30597;49.628;10.850;2023-04-25T13:23:05;2.20;;;1.67;;
44862;SDS011;30597;49.628;10.850;2023-04-25T13:25:31;2.17;;;1.30;;
44862;SDS011;30597;49.628;10.850;2023-04-25T13:27:56;2.00;;;1.67;;
44862;SDS011;30597;49.628;10.850;2023-04-25T13:30:22;1.80;;;1.50;;
44862;SDS011;30597;49.628;10.850;2023-04-25T13:32:48;1.30;;;1.20;;
44862;SDS011;30597;49.628;10.850;2023-04-25T13:35:13;1.57;;;1.10;;
44862;SDS011;30597;49.628;10.850;2023-04-25T13:37:39;2.57;;;1.60;;
44862;SDS011;30597;49.628;10.850;2023-04-25T13:40:06;1.50;;;1.40;;
44862;SDS011;30597;49.628;10.850;2023-04-25T13:42:35;1.70;;;1.60;;
44862;SDS011;30597;49.628;10.850;2023-04-25T13:45:01;1.77;;;1.30;;
44862;SDS011;30597;49.628;10.850;2023-04-25T13:47:27;2.30;;;1.47;;
44862;SDS011;30597;49.628;10.850;2023-04-25T13:49:53;1.70;;;1.60;;
44862;SDS011;30597;49.628;10.850;2023-04-25T13:52:19;1.53;;;1.43;;
44862;SDS011;30597;49.628;10.850;2023-04-25T13:54:45;1.70;;;1.60;;
44862;SDS011;30597;49.628;10.850;2023-04-25T13:57:11;1.70;;;1.60;;
44862;SDS011;30597;49.628;10.850;2023-04-25T13:59:37;1.33;;;1.20;;
44862;SDS011;30597;49.628;10.850;2023-04-25T14:02:02;3.00;;;1.60;;
44862;SDS011;30597;49.628;10.850;2023-04-25T14:04:31;1.50;;;1.40;;
44862;SDS011;30597;49.628;10.850;2023-04-25T14:06:57;2.20;;;1.80;;
44862;SDS011;30597;49.628;10.850;2023-04-25T14:09:22;2.70;;;1.70;;
44862;SDS011;30597;49.628;10.850;2023-04-25T14:11:51;1.50;;;1.40;;
44862;SDS011;30597;49.628;10.850;2023-04-25T14:14:17;1.63;;;1.50;;
44862;SDS011;30597;49.628;10.850;2023-04-25T14:16:43;1.63;;;1.53;;
44862;SDS011;30597;49.628;10.850;2023-04-25T14:19:08;1.80;;;1.50;;
44862;SDS011;30597;49.628;10.850;2023-04-25T14:21:34;2.07;;;1.50;;
44862;SDS011;30597;49.628;10.850;2023-04-25T14:24:00;1.30;;;1.20;;
44862;SDS011;30597;49.628;10.850;2023-04-25T14:26:25;1.63;;;1.53;;
44862;SDS011;30597;49.628;10.850;2023-04-25T14:28:51;2.20;;;1.70;;
44862;SDS011;30597;49.628;10.850;2023-04-25T14:31:17;1.80;;;1.40;;
44862;SDS011;30597;49.628;10.850;2023-04-25T14:33:42;1.83;;;1.60;;
44862;SDS011;30597;49.628;10.850;2023-04-25T14:36:08;1.60;;;1.37;;
44862;SDS011;30597;49.628;10.850;2023-04-25T14:38:34;1.40;;;1.30;;